Olney, TX (76374)

5:17 PM CDT on July 31, 2014 (GMT -0500)
DDR Longhorns Graham, Texas (KTXGRAHA5) Elev 1178 ft | 33.18 °N, 98.67 °W | Change Station

Current weather conditions updated 2 seconds ago

Overcast
Overcast
77.2 °F
Feels Like 79 °F
N
12.1
Wind Variable Wind from North
Gusts 16.0 mph

Tomorrow is forecast to be Much Warmer than today.

Today
High -- | Low -- °F
--% Chance of Precip.
Yesterday
High -- | Low -- °F
Precip. -- in
6:47 AM 8:35 PM
Waxing Crescent, 21% visible
Pressure 30.03 in
Visibility 10.0 miles
Clouds Scattered Clouds 2700 ft
Overcast 4100 ft
Heat Index 79 °F
Dew Point 64 °F
Humidity 63%
Rainfall 0.00 in
Snow Depth Not available.
UV 2 out of 12
Pollen 3.00 out of 12
Air Quality Not available.
Flu Activity Not available.
METAR KRPH 312155Z AUTO 35011G14KT 10SM SCT027 OVC041 26/19 A3003 RMK AO2 T02550185

More Conditions Fewer Conditions

Pressure 30.03 in
Visibility 10.0 miles
Clouds Scattered Clouds 2700 ft
Overcast 4100 ft
Heat Index 79 °F
Dew Point 64 °F
Humidity 63%
Rainfall 0.00 in
Snow Depth Not available.
UV 2 out of 12
Pollen 3.00 out of 12
Air Quality Not available.
Flu Activity Not available.
METAR KRPH 312155Z AUTO 35011G14KT 10SM SCT027 OVC041 26/19 A3003 RMK AO2 T02550185

More Conditions Fewer Conditions

Nowcast | as of 4:52 PM CDT on July 31, 2014

Isolated thunderstorms continue to push eastward at 15 to 25 mph in a line from Canton to Palestine to Cameron along an advancing cold front. These showers and storms are capable of producing heavy rain...gusty winds...and cloud to ground lightning. Behind the cold front...skies will remain mostly cloudy and temperatures will hold in the 70s. Areas along and ahead of the cold front that have experienced sunny skies will see temperatures linger in the upper 80s and low 90s until the front passes.

×

10-Day Weather Forecast

Almanac

Astronomy

Jul. 31, 2014 Rise Set
Actual Time 6:47 AM CDT 8:35 PM CDT
Civil Twilight 6:19 AM CDT 9:02 PM CDT
Nautical Twilight 5:46 AM CDT 9:35 PM CDT
Astronomical Twilight 5:12 AM CDT 10:09 PM CDT
Moon 10:59 AM CDT 11:06 PM CDT
Length of Visible Light 14h 42m
Length of Day
13h 48m
Tomorrow will be 1m 32s shorter.
Waxing Crescent, 21% of the Moon is Illuminated
Today
Waxing Crescent
Aug 3
First Quarter
Aug 10
Full
Aug 17
Last Quarter
Aug 25
New

Today's Extremes

State Highs State Lows

Community

WunderPhotos

Upload Photos

1,739,458 photos uploaded!

Nearby

Snow Depth

Station Depth Elevation
No new snow has been reported.

Earthquake Activity

City Distance Mag. Time & Date
No recent earthquake activity has been reported nearby.
Minimum magnitude displayed is 2.5.

Coastal Water Temperatures

Place Temperature
No Stations Reporting

Nearby Weather Stations

Station Location Temp. Heat Index Dew Point Humidity Wind Precip. Elev Updated Type
DDR Longhorns Graham, Texas, Graham, TX 77.2 °F 79 °F 64 °F 63% North  at  12.1 mph 0.00 in / hr 1178 ft 5:17 PM CDT Rapid Fire

Show More Stations Show Fewer Stations